createdAt,value
2018-02-17T08:04:23.634Z,9.63
2018-02-17T08:06:51.021Z,9.80
2018-02-17T08:09:18.374Z,9.80
2018-02-17T08:11:45.725Z,9.30
2018-02-17T08:14:13.096Z,9.07
2018-02-17T08:16:40.440Z,9.60
2018-02-17T08:19:07.826Z,9.33
2018-02-17T08:21:35.195Z,9.13
2018-02-17T08:24:02.544Z,9.27
2018-02-17T08:26:29.910Z,9.20
2018-02-17T08:28:57.255Z,8.80
2018-02-17T08:31:24.683Z,9.17
2018-02-17T08:33:52.043Z,9.37
2018-02-17T08:36:19.450Z,9.30
2018-02-17T08:38:46.804Z,9.73
2018-02-17T08:41:14.184Z,9.53
2018-02-17T08:43:41.549Z,9.60
2018-02-17T08:46:09.027Z,9.47
2018-02-17T08:48:36.390Z,9.03
2018-02-17T08:51:03.770Z,9.40
2018-02-17T08:53:31.186Z,9.60
2018-02-17T08:55:58.532Z,9.63
2018-02-17T08:58:25.932Z,9.50
2018-02-17T09:00:53.303Z,9.37
2018-02-17T09:03:20.647Z,9.13
2018-02-17T09:05:48.066Z,9.27
2018-02-17T09:08:15.514Z,9.80
2018-02-17T09:10:42.901Z,9.63
2018-02-17T09:13:10.269Z,9.60
2018-02-17T09:15:37.618Z,9.93
2018-02-17T09:18:04.962Z,8.77
2018-02-17T09:20:32.354Z,9.70
2018-02-17T09:22:59.714Z,9.73
2018-02-17T09:25:27.080Z,9.43
2018-02-17T09:27:54.441Z,9.73
2018-02-17T09:30:21.798Z,9.90
2018-02-17T09:32:49.151Z,9.13
2018-02-17T09:35:16.558Z,9.63
2018-02-17T09:37:43.914Z,9.50
2018-02-17T09:40:11.262Z,9.90
2018-02-17T09:42:38.610Z,9.83
2018-02-17T09:45:05.958Z,9.63
2018-02-17T09:47:33.332Z,10.27
2018-02-17T09:50:00.733Z,9.77
2018-02-17T09:52:28.166Z,9.70
2018-02-17T09:54:55.597Z,9.90
2018-02-17T09:57:22.995Z,10.10
2018-02-17T09:59:50.363Z,9.80
2018-02-17T10:02:17.771Z,9.47
2018-02-17T10:04:45.123Z,10.23
2018-02-17T10:07:12.518Z,9.93
2018-02-17T10:09:39.995Z,9.70
2018-02-17T10:12:07.401Z,9.70
2018-02-17T10:14:34.795Z,10.40
2018-02-17T10:17:02.217Z,9.93
2018-02-17T10:19:29.606Z,9.77
2018-02-17T10:21:56.955Z,10.50
2018-02-17T10:24:24.371Z,10.63
2018-02-17T10:26:51.715Z,10.20
2018-02-17T10:29:19.158Z,9.73
2018-02-17T10:31:46.518Z,10.13
2018-02-17T10:34:13.927Z,10.63
2018-02-17T10:36:41.307Z,9.60
2018-02-17T10:39:08.727Z,10.73
2018-02-17T10:41:36.108Z,10.17
2018-02-17T10:44:03.472Z,9.80
2018-02-17T10:46:30.815Z,9.60
2018-02-17T10:48:58.156Z,10.20
2018-02-17T10:51:25.590Z,10.30
2018-02-17T10:53:53.007Z,10.10
2018-02-17T10:56:20.351Z,9.87
2018-02-17T10:58:47.790Z,10.53
2018-02-17T11:01:15.159Z,10.80
2018-02-17T11:03:42.560Z,10.10
2018-02-17T11:06:09.914Z,10.10
2018-02-17T11:08:37.305Z,10.57
2018-02-17T11:11:04.654Z,9.93
2018-02-17T11:13:32.051Z,10.73
2018-02-17T11:15:59.409Z,10.07
2018-02-17T11:18:26.760Z,9.90
2018-02-17T11:20:54.162Z,10.20
2018-02-17T11:23:31.687Z,10.63
2018-02-17T11:25:59.070Z,10.10
2018-02-17T11:28:26.470Z,10.30
2018-02-17T11:30:53.862Z,10.87
2018-02-17T11:33:21.215Z,10.60
2018-02-17T11:35:48.567Z,10.33
2018-02-17T11:38:15.919Z,10.20
2018-02-17T11:40:43.263Z,10.57
2018-02-17T11:43:10.620Z,10.27
2018-02-17T11:45:38.008Z,9.87
2018-02-17T11:48:05.361Z,10.30
2018-02-17T11:50:32.702Z,9.87
2018-02-17T11:53:00.049Z,10.00
2018-02-17T11:55:27.443Z,11.07
2018-02-17T11:57:54.799Z,9.80
2018-02-17T12:00:22.155Z,9.60
2018-02-17T12:02:49.509Z,10.87
2018-02-17T12:05:16.887Z,10.30
2018-02-17T12:07:44.262Z,9.83
2018-02-17T12:10:11.616Z,10.27
2018-02-17T12:12:39.013Z,10.37
2018-02-17T12:15:06.415Z,10.20
2018-02-17T12:17:33.802Z,10.63
2018-02-17T12:20:01.149Z,10.10
2018-02-17T12:22:28.508Z,10.30
2018-02-17T12:24:55.862Z,9.80
2018-02-17T12:27:23.250Z,9.80
2018-02-17T12:29:50.602Z,10.67
2018-02-17T12:32:17.976Z,10.90
2018-02-17T12:34:45.331Z,10.47
2018-02-17T12:37:12.687Z,10.50
2018-02-17T12:39:40.100Z,10.10
2018-02-17T12:42:07.449Z,9.90
2018-02-17T12:44:34.799Z,10.03
2018-02-17T12:47:02.151Z,10.50
2018-02-17T12:49:29.596Z,9.63
2018-02-17T12:51:56.982Z,10.17
2018-02-17T12:54:24.324Z,10.20
2018-02-17T12:56:51.672Z,9.87
2018-02-17T12:59:19.071Z,10.27
2018-02-17T13:01:46.421Z,10.97
2018-02-17T13:04:13.820Z,9.93
2018-02-17T13:06:41.191Z,10.27
2018-02-17T13:09:08.625Z,9.70
2018-02-17T13:11:36.079Z,10.33
2018-02-17T13:14:03.473Z,10.13
2018-02-17T13:16:30.865Z,10.57
2018-02-17T13:18:58.260Z,10.17
2018-02-17T13:21:25.667Z,9.50
2018-02-17T13:23:53.070Z,9.67
2018-02-17T13:26:20.446Z,10.37
2018-02-17T13:28:47.853Z,10.03
2018-02-17T13:31:15.283Z,10.20
2018-02-17T13:33:42.628Z,9.70
2018-02-17T13:36:10.033Z,10.07
2018-02-17T13:38:37.379Z,10.47
2018-02-17T13:41:04.728Z,11.10
2018-02-17T13:43:32.072Z,10.17
2018-02-17T13:45:59.463Z,9.90
2018-02-17T13:48:26.855Z,9.60
2018-02-17T13:50:54.190Z,9.80
2018-02-17T13:53:21.542Z,10.17
2018-02-17T13:55:48.878Z,9.90
2018-02-17T13:58:16.222Z,9.77
2018-02-17T14:00:43.622Z,10.53
2018-02-17T14:03:10.977Z,9.90
2018-02-17T14:05:38.367Z,9.63
2018-02-17T14:08:05.735Z,9.83
2018-02-17T14:10:33.124Z,9.87
2018-02-17T14:13:00.536Z,9.93
2018-02-17T14:15:27.958Z,10.33
2018-02-17T14:17:55.358Z,10.00
2018-02-17T14:20:22.722Z,9.33
2018-02-17T14:22:50.161Z,10.30
2018-02-17T14:25:17.565Z,10.03
2018-02-17T14:27:44.971Z,9.53
2018-02-17T14:30:12.397Z,9.70
2018-02-17T14:32:39.823Z,9.70
2018-02-17T14:35:07.211Z,9.67
2018-02-17T14:37:34.567Z,9.63
2018-02-17T14:40:01.928Z,9.87
2018-02-17T14:42:29.296Z,9.93
2018-02-17T14:44:56.707Z,9.80
2018-02-17T14:47:24.079Z,9.63
2018-02-17T14:49:51.455Z,10.20
2018-02-17T14:52:18.875Z,9.97
2018-02-17T14:54:46.240Z,10.07
2018-02-17T14:57:13.639Z,9.67
2018-02-17T14:59:41.049Z,9.23
2018-02-17T15:02:08.480Z,10.07
2018-02-17T15:04:35.877Z,9.37
2018-02-17T15:07:03.247Z,9.70
2018-02-17T15:09:30.655Z,9.97
2018-02-17T15:11:58.056Z,9.27
2018-02-17T15:14:25.457Z,9.73
2018-02-17T15:16:52.893Z,9.60
2018-02-17T15:19:20.247Z,9.40
2018-02-17T15:21:47.612Z,9.37
2018-02-17T15:24:14.997Z,9.20
2018-02-17T15:26:42.364Z,9.83
2018-02-17T15:29:09.732Z,9.20
2018-02-17T15:31:37.129Z,8.97
2018-02-17T15:34:04.495Z,9.07
2018-02-17T15:36:31.866Z,9.53
2018-02-17T15:38:59.226Z,9.37
2018-02-17T15:41:26.625Z,9.10
2018-02-17T15:43:54.011Z,9.17
2018-02-17T15:46:21.367Z,9.30
2018-02-17T15:48:48.788Z,9.33
2018-02-17T15:51:16.191Z,9.20
2018-02-17T15:53:43.550Z,9.80
2018-02-17T15:56:10.914Z,9.23
2018-02-17T15:58:38.339Z,9.20
2018-02-17T16:01:05.702Z,9.73
2018-02-17T16:03:33.080Z,9.27
2018-02-17T16:06:00.454Z,9.57
2018-02-17T16:08:27.847Z,10.00
2018-02-17T16:10:55.203Z,9.63
2018-02-17T16:13:22.563Z,9.43
2018-02-17T16:15:49.947Z,10.03
2018-02-17T16:18:17.318Z,9.97
2018-02-17T16:20:44.693Z,9.97
2018-02-17T16:23:12.077Z,10.63
2018-02-17T16:25:39.438Z,10.50
2018-02-17T16:28:06.800Z,9.43
2018-02-17T16:30:34.255Z,9.87
2018-02-17T16:33:01.651Z,10.00
2018-02-17T16:35:29.003Z,10.30
2018-02-17T16:37:56.396Z,10.33
2018-02-17T16:40:23.752Z,10.57
2018-02-17T16:42:51.117Z,10.80
2018-02-17T16:45:18.563Z,10.93
2018-02-17T16:47:45.926Z,11.10
2018-02-17T16:50:13.439Z,11.20
2018-02-17T16:52:40.804Z,11.17
2018-02-17T16:55:08.164Z,10.97
2018-02-17T16:57:35.522Z,10.97
2018-02-17T17:00:02.890Z,11.20
2018-02-17T17:02:30.312Z,11.07
2018-02-17T17:04:57.626Z,11.10
2018-02-17T17:07:24.982Z,11.43
2018-02-17T17:09:52.365Z,11.53
2018-02-17T17:12:19.766Z,11.53
2018-02-17T17:14:47.162Z,11.87
2018-02-17T17:17:14.531Z,12.27
2018-02-17T17:19:41.989Z,11.50
2018-02-17T17:22:09.358Z,11.03
2018-02-17T17:24:36.752Z,11.93
2018-02-17T17:27:04.158Z,12.37
2018-02-17T17:29:31.521Z,11.30
2018-02-17T17:31:58.919Z,11.97
2018-02-17T17:34:26.353Z,12.40
2018-02-17T17:36:53.724Z,11.60
2018-02-17T17:39:21.099Z,11.80
2018-02-17T17:41:48.477Z,11.20
2018-02-17T17:44:15.894Z,11.70
2018-02-17T17:46:43.350Z,11.93
2018-02-17T17:49:10.832Z,11.80
2018-02-17T17:51:38.259Z,11.83
2018-02-17T17:54:05.632Z,12.17
2018-02-17T17:56:33.002Z,11.73
2018-02-17T17:59:00.364Z,11.57
2018-02-17T18:01:27.756Z,11.70
2018-02-17T18:03:55.107Z,11.63
2018-02-17T18:06:22.475Z,11.87
2018-02-17T18:08:49.880Z,12.90
2018-02-17T18:11:17.271Z,11.90
2018-02-17T18:13:44.674Z,12.87
2018-02-17T18:16:12.867Z,12.30
2018-02-17T18:18:40.235Z,12.83
2018-02-17T18:21:07.591Z,12.43
2018-02-17T18:23:35.035Z,12.40
2018-02-17T18:26:02.396Z,13.20
2018-02-17T18:28:29.761Z,13.80
2018-02-17T18:30:57.127Z,12.27
2018-02-17T18:33:24.501Z,13.20
2018-02-17T18:35:51.856Z,12.43
2018-02-17T18:38:19.271Z,12.43
2018-02-17T18:40:46.658Z,13.27
2018-02-17T18:43:14.044Z,13.20
2018-02-17T18:45:41.476Z,13.10
2018-02-17T18:48:08.934Z,14.07
2018-02-17T18:50:36.352Z,13.10
2018-02-17T18:53:03.763Z,13.50
2018-02-17T18:55:31.187Z,13.07
2018-02-17T18:57:58.607Z,13.73
2018-02-17T19:00:25.964Z,13.30
2018-02-17T19:02:53.346Z,12.90
2018-02-17T19:05:20.743Z,13.40
2018-02-17T19:07:48.089Z,13.70
2018-02-17T19:10:15.596Z,12.47
2018-02-17T19:12:43.047Z,12.80
2018-02-17T19:15:10.415Z,13.27
2018-02-17T19:17:37.827Z,13.20
2018-02-17T19:20:05.232Z,13.10
2018-02-17T19:22:32.666Z,13.33
2018-02-17T19:25:00.064Z,13.00
2018-02-17T19:27:27.439Z,13.03
2018-02-17T19:29:54.797Z,12.23
2018-02-17T19:32:22.241Z,12.70
2018-02-17T19:34:49.682Z,12.90
2018-02-17T19:37:17.051Z,12.33
2018-02-17T19:39:44.430Z,12.67
2018-02-17T19:42:11.866Z,12.83
2018-02-17T19:44:39.360Z,12.77
2018-02-17T19:47:06.780Z,12.83
2018-02-17T19:49:34.184Z,12.47
2018-02-17T19:52:01.592Z,13.03
2018-02-17T19:54:29.012Z,12.50
2018-02-17T19:56:56.375Z,12.27
2018-02-17T19:59:23.785Z,11.90
2018-02-17T20:01:51.156Z,11.53
2018-02-17T20:04:18.569Z,12.23
2018-02-17T20:06:45.934Z,12.33
2018-02-17T20:09:13.335Z,12.50
2018-02-17T20:11:40.748Z,13.00
2018-02-17T20:14:08.199Z,12.77
2018-02-17T20:16:35.590Z,12.30
2018-02-17T20:19:02.994Z,12.27
2018-02-17T20:21:30.387Z,12.13
2018-02-17T20:23:57.817Z,11.67
2018-02-17T20:26:25.183Z,11.87
2018-02-17T20:28:52.640Z,11.43
2018-02-17T20:31:20.011Z,12.20
2018-02-17T20:33:47.481Z,12.23
2018-02-17T20:36:14.906Z,12.17
2018-02-17T20:38:42.309Z,11.50
2018-02-17T20:41:09.790Z,12.43
2018-02-17T20:43:37.166Z,11.93
2018-02-17T20:46:04.595Z,12.70
2018-02-17T20:48:31.969Z,11.30
2018-02-17T20:50:59.336Z,11.47
2018-02-17T20:53:26.728Z,12.00
2018-02-17T20:55:54.132Z,11.53
2018-02-17T20:58:21.538Z,12.00
2018-02-17T21:00:48.969Z,11.90
2018-02-17T21:03:16.370Z,11.47
2018-02-17T21:05:43.820Z,11.67
2018-02-17T21:08:11.187Z,12.03
2018-02-17T21:10:38.575Z,11.03
2018-02-17T21:13:06.003Z,11.90
2018-02-17T21:15:33.382Z,11.53
2018-02-17T21:18:00.751Z,11.10
2018-02-17T21:20:28.182Z,11.47
2018-02-17T21:22:55.585Z,10.40
2018-02-17T21:25:23.132Z,11.30
2018-02-17T21:27:50.543Z,11.47
2018-02-17T21:30:17.982Z,10.73
2018-02-17T21:32:45.350Z,11.20
2018-02-17T21:35:12.812Z,10.93
2018-02-17T21:37:40.190Z,11.13
2018-02-17T21:40:07.709Z,11.40
2018-02-17T21:42:35.140Z,10.83
2018-02-17T21:45:02.502Z,10.80
2018-02-17T21:47:29.926Z,11.07
2018-02-17T21:49:57.356Z,10.70
2018-02-17T21:52:24.817Z,11.40
2018-02-17T21:54:52.239Z,10.60
2018-02-17T21:57:19.556Z,10.73
2018-02-17T21:59:46.967Z,10.90
2018-02-17T22:02:14.396Z,9.87
2018-02-17T22:04:41.817Z,10.90
2018-02-17T22:07:09.203Z,9.97
2018-02-17T22:09:36.629Z,10.63
2018-02-17T22:12:04.017Z,10.77
2018-02-17T22:14:31.392Z,10.90
2018-02-17T22:16:58.800Z,11.10
2018-02-17T22:19:26.163Z,10.67
2018-02-17T22:21:53.572Z,10.70
2018-02-17T22:24:20.990Z,10.87
2018-02-17T22:26:48.351Z,10.33
2018-02-17T22:29:15.755Z,11.23
2018-02-17T22:31:43.140Z,10.40
2018-02-17T22:34:10.551Z,10.27
2018-02-17T22:36:37.993Z,11.00
2018-02-17T22:39:05.411Z,10.27
2018-02-17T22:41:32.876Z,11.13
2018-02-17T22:44:00.290Z,10.87
2018-02-17T22:46:27.652Z,10.50
2018-02-17T22:48:55.032Z,10.30
2018-02-17T22:51:22.410Z,10.30
2018-02-17T22:53:49.770Z,10.30
2018-02-17T22:56:17.160Z,10.53
2018-02-17T22:58:44.561Z,10.13
2018-02-17T23:01:11.994Z,10.03
2018-02-17T23:03:39.362Z,11.03
2018-02-17T23:06:06.761Z,11.00
2018-02-17T23:08:34.145Z,9.77
2018-02-17T23:11:01.499Z,9.80
2018-02-17T23:13:28.877Z,9.63
2018-02-17T23:15:56.256Z,9.57
2018-02-17T23:18:23.669Z,10.10
2018-02-17T23:20:51.052Z,9.83
2018-02-17T23:23:18.412Z,9.87
2018-02-17T23:25:45.800Z,10.40
2018-02-17T23:28:13.249Z,10.53
2018-02-17T23:30:40.609Z,10.10
2018-02-17T23:33:08.054Z,10.37
2018-02-17T23:35:35.408Z,9.90
2018-02-17T23:38:02.812Z,9.70
2018-02-17T23:40:30.240Z,9.53
2018-02-17T23:42:57.682Z,9.87
2018-02-17T23:45:25.046Z,10.20
2018-02-17T23:47:52.423Z,9.63
2018-02-17T23:50:19.778Z,9.90
2018-02-17T23:52:47.122Z,9.90
2018-02-17T23:55:14.466Z,9.70
2018-02-17T23:57:41.819Z,9.63
